Terminal Aerodrome Forecast
Issued by NWS

Home | Current Version | Previous Version | Text Only | Print | Product List | Glossary On
Versions: 1 2 3 4 5 6 7 8 9 10 11 12 13 14 15 16 17 18 19 20 21 22 23 24 25 26 27 28 29
000
FTUS46 KEKA 282327
TAFCEC
TAF
KCEC 282327Z 2900/2924 33020G28KT P6SM SKC
     FM290300 34015G22KT P6SM FEW250
     FM290600 36008KT P6SM SCT250
     FM291600 32012KT P6SM SKC
     FM292000 33012KT P6SM SKC=

USA.gov is the U.S. government's official web portal to all federal, state and local government web resources and services.